Time,TemperatureF,DewpointF,PressureIn,WindDirection,WindDirectionDegrees,WindSpeedMPH,WindSpeedGustMPH,Humidity,HourlyPrecipIn,Conditions,Clouds,dailyrainin,SoftwareType,DateUTC
2013-04-12 00:00:00,76.0,71.4,29.93,South,186,3.5,11.2,86,0.00,,,0.00,WUHU216PEETBRO,2013-04-12 04:00:00,
2013-04-12 00:05:00,75.9,71.4,29.93,SE,129,0.0,9.0,86,0.00,,,0.00,WUHU216PEETBRO,2013-04-12 04:05:00,
2013-04-12 00:10:00,75.7,71.4,29.93,SSE,166,2.9,9.8,86,0.00,,,0.00,WUHU216PEETBRO,2013-04-12 04:10:00,
2013-04-12 00:15:00,75.7,71.5,29.93,South,177,7.7,9.8,87,0.00,,,0.00,WUHU216PEETBRO,2013-04-12 04:15:00,
2013-04-12 00:20:00,75.6,71.5,29.93,East,101,0.0,10.4,87,0.00,,,0.00,WUHU216PEETBRO,2013-04-12 04:20:00,
2013-04-12 00:25:00,75.5,71.5,29.93,ESE,107,6.5,10.4,87,0.00,,,0.00,WUHU216PEETBRO,2013-04-12 04:25:00,
2013-04-12 00:30:00,75.5,71.5,29.93,SE,138,8.1,8.1,88,0.00,,,0.00,WUHU216PEETBRO,2013-04-12 04:30:00,
2013-04-12 00:35:00,75.2,71.5,29.93,ESE,103,0.0,8.2,88,0.00,,,0.00,WUHU216PEETBRO,2013-04-12 04:35:00,
2013-04-12 00:40:00,75.1,71.6,29.93,East,94,6.2,12.1,89,0.00,,,0.00,WUHU216PEETBRO,2013-04-12 04:40:00,
2013-04-12 00:45:00,75.0,71.6,29.93,SE,128,0.0,12.1,89,0.00,,,0.00,WUHU216PEETBRO,2013-04-12 04:45:00,
2013-04-12 00:50:00,75.1,71.7,29.94,SSE,152,0.0,11.8,89,0.00,,,0.00,WUHU216PEETBRO,2013-04-12 04:50:00,
2013-04-12 00:55:00,75.0,71.8,29.94,South,170,9.5,11.7,90,0.00,,,0.00,WUHU216PEETBRO,2013-04-12 04:55:00,
2013-04-12 01:00:00,75.0,71.8,29.94,South,187,7.3,11.7,90,0.00,,,0.00,WUHU216PEETBRO,2013-04-12 05:00:00,
2013-04-12 01:05:00,74.8,71.7,29.94,ESE,115,7.4,9.6,90,0.00,,,0.00,WUHU216PEETBRO,2013-04-12 05:05:00,
2013-04-12 01:10:00,74.9,71.9,29.94,SSE,167,10.7,10.7,90,0.00,,,0.00,WUHU216PEETBRO,2013-04-12 05:10:00,
2013-04-12 01:15:00,74.8,71.8,29.94,East,101,6.7,10.7,90,0.00,,,0.00,WUHU216PEETBRO,2013-04-12 05:15:00,
2013-04-12 01:20:00,74.9,71.9,29.94,ESE,122,5.8,10.7,90,0.00,,,0.00,WUHU216PEETBRO,2013-04-12 05:20:00,
2013-04-12 01:25:00,74.8,71.8,29.95,South,170,3.0,7.6,91,0.00,,,0.00,WUHU216PEETBRO,2013-04-12 05:25:00,
2013-04-12 01:30:00,74.8,71.9,29.95,ESE,111,3.4,7.5,91,0.00,,,0.00,WUHU216PEETBRO,2013-04-12 05:30:00,
2013-04-12 01:35:00,74.8,71.9,29.95,East,101,3.4,9.4,91,0.00,,,0.00,WUHU216PEETBRO,2013-04-12 05:35:00,
2013-04-12 01:40:00,74.7,71.8,29.95,SSE,163,5.4,9.4,91,0.00,,,0.00,WUHU216PEETBRO,2013-04-12 05:40:00,
2013-04-12 01:45:00,74.7,71.8,29.95,ESE,121,4.3,9.3,91,0.00,,,0.00,WUHU216PEETBRO,2013-04-12 05:45:00,
2013-04-12 01:50:00,74.7,71.8,29.95,SE,135,3.4,9.3,91,0.00,,,0.00,WUHU216PEETBRO,2013-04-12 05:50:00,
2013-04-12 01:55:00,74.6,71.8,29.95,East,80,4.3,8.8,91,0.00,,,0.00,WUHU216PEETBRO,2013-04-12 05:55:00,
2013-04-12 02:00:00,74.6,71.8,29.94,SE,146,0.0,8.8,91,0.00,,,0.00,WUHU216PEETBRO,2013-04-12 06:00:00,
2013-04-12 02:05:00,74.4,71.7,29.94,ENE,73,0.0,8.8,91,0.00,,,0.00,WUHU216PEETBRO,2013-04-12 06:05:00,
2013-04-12 02:10:00,74.5,71.9,29.94,East,83,0.0,8.9,92,0.00,,,0.00,WUHU216PEETBRO,2013-04-12 06:10:00,
2013-04-12 02:15:00,74.4,71.8,29.94,ESE,103,4.7,8.9,92,0.00,,,0.00,WUHU216PEETBRO,2013-04-12 06:15:00,
2013-04-12 02:20:00,74.3,71.7,29.94,SSE,159,9.4,9.4,92,0.00,,,0.00,WUHU216PEETBRO,2013-04-12 06:20:00,
2013-04-12 02:25:00,74.3,71.8,29.94,SSE,152,7.4,9.4,92,0.00,,,0.00,WUHU216PEETBRO,2013-04-12 06:25:00,
2013-04-12 02:30:00,74.4,71.9,29.94,SSE,167,5.2,9.5,92,0.00,,,0.00,WUHU216PEETBRO,2013-04-12 06:30:00,
2013-04-12 02:35:00,74.3,71.8,29.93,SE,129,5.8,9.5,92,0.00,,,0.00,WUHU216PEETBRO,2013-04-12 06:35:00,
2013-04-12 02:40:00,74.4,71.9,29.93,SSE,162,4.5,12.7,92,0.00,,,0.00,WUHU216PEETBRO,2013-04-12 06:40:00,
2013-04-12 02:45:00,74.3,71.8,29.93,SE,128,4.5,12.7,92,0.00,,,0.00,WUHU216PEETBRO,2013-04-12 06:45:00,
2013-04-12 02:50:00,74.2,71.8,29.93,SSE,148,5.0,9.4,92,0.00,,,0.00,WUHU216PEETBRO,2013-04-12 06:50:00,
2013-04-12 02:55:00,74.2,71.8,29.93,ESE,118,3.5,7.1,92,0.00,,,0.00,WUHU216PEETBRO,2013-04-12 06:55:00,
2013-04-12 03:00:00,74.2,71.8,29.93,ESE,118,0.0,11.5,92,0.00,,,0.00,WUHU216PEETBRO,2013-04-12 07:00:00,
2013-04-12 03:05:00,74.1,71.8,29.93,SE,138,0.0,11.5,93,0.00,,,0.00,WUHU216PEETBRO,2013-04-12 07:05:00,
2013-04-12 03:10:00,74.1,71.8,29.92,ESE,122,4.5,10.0,93,0.00,,,0.00,WUHU216PEETBRO,2013-04-12 07:10:00,
2013-04-12 03:15:00,74.1,71.8,29.92,ESE,121,3.0,10.0,93,0.00,,,0.00,WUHU216PEETBRO,2013-04-12 07:15:00,
2013-04-12 03:20:00,74.0,71.8,29.92,ESE,111,0.0,8.8,93,0.00,,,0.00,WUHU216PEETBRO,2013-04-12 07:20:00,
2013-04-12 03:25:00,73.9,71.8,29.92,ESE,111,0.0,10.5,93,0.00,,,0.00,WUHU216PEETBRO,2013-04-12 07:25:00,
2013-04-12 03:30:00,73.9,71.8,29.91,East,86,0.0,10.5,93,0.00,,,0.00,WUHU216PEETBRO,2013-04-12 07:30:00,
2013-04-12 03:35:00,74.0,71.9,29.92,SSE,167,0.0,8.3,93,0.00,,,0.00,WUHU216PEETBRO,2013-04-12 07:35:00,
2013-04-12 03:40:00,73.9,71.9,29.92,SE,145,8.2,10.2,94,0.00,,,0.00,WUHU216PEETBRO,2013-04-12 07:40:00,
2013-04-12 03:45:00,73.9,71.9,29.93,ESE,107,5.3,10.2,94,0.00,,,0.00,WUHU216PEETBRO,2013-04-12 07:45:00,
2013-04-12 03:50:00,73.8,71.8,29.93,SSE,148,0.0,7.0,94,0.00,,,0.00,WUHU216PEETBRO,2013-04-12 07:50:00,
2013-04-12 03:55:00,74.0,72.0,29.92,SE,134,0.0,7.0,94,0.00,,,0.00,WUHU216PEETBRO,2013-04-12 07:55:00,
2013-04-12 04:00:00,74.1,72.1,29.93,SE,134,0.0,5.7,94,0.00,,,0.00,WUHU216PEETBRO,2013-04-12 08:00:00,
2013-04-12 04:05:00,74.0,72.0,29.93,SE,134,0.0,0.0,94,0.00,,,0.00,WUHU216PEETBRO,2013-04-12 08:05:00,
2013-04-12 04:10:00,74.1,72.1,29.93,SE,134,0.0,0.0,94,0.00,,,0.00,WUHU216PEETBRO,2013-04-12 08:10:00,
2013-04-12 04:15:00,74.1,72.1,29.93,SE,134,0.0,0.0,94,0.00,,,0.00,WUHU216PEETBRO,2013-04-12 08:15:00,
2013-04-12 04:20:00,74.2,72.2,29.93,ESE,119,0.0,7.5,94,0.00,,,0.00,WUHU216PEETBRO,2013-04-12 08:20:00,
2013-04-12 04:25:00,74.1,72.1,29.93,SE,131,5.2,7.6,94,0.00,,,0.00,WUHU216PEETBRO,2013-04-12 08:25:00,
2013-04-12 04:30:00,74.2,72.2,29.93,East,84,0.0,8.5,94,0.00,,,0.00,WUHU216PEETBRO,2013-04-12 08:30:00,
2013-04-12 04:35:00,74.2,72.2,29.93,SE,139,0.0,8.5,94,0.00,,,0.00,WUHU216PEETBRO,2013-04-12 08:35:00,
2013-04-12 04:40:00,74.2,72.2,29.93,SE,135,0.0,7.3,94,0.00,,,0.00,WUHU216PEETBRO,2013-04-12 08:40:00,
2013-04-12 04:45:00,74.2,72.2,29.93,SSE,151,5.4,7.3,94,0.00,,,0.00,WUHU216PEETBRO,2013-04-12 08:45:00,
2013-04-12 04:50:00,74.2,72.2,29.93,ESE,118,3.0,8.0,94,0.00,,,0.00,WUHU216PEETBRO,2013-04-12 08:50:00,
2013-04-12 04:55:00,74.3,72.4,29.92,East,93,4.2,9.6,94,0.00,,,0.00,WUHU216PEETBRO,2013-04-12 08:55:00,
2013-04-12 05:00:00,74.3,72.3,29.92,SE,146,4.2,9.6,94,0.00,,,0.00,WUHU216PEETBRO,2013-04-12 09:00:00,
2013-04-12 05:05:00,74.3,72.4,29.93,SE,135,4.7,7.9,94,0.00,,,0.00,WUHU216PEETBRO,2013-04-12 09:05:00,
2013-04-12 05:10:00,74.4,72.5,29.93,ESE,103,0.0,6.2,94,0.00,,,0.00,WUHU216PEETBRO,2013-04-12 09:10:00,
2013-04-12 05:15:00,74.5,72.5,29.92,SE,138,0.0,7.4,94,0.00,,,0.00,WUHU216PEETBRO,2013-04-12 09:15:00,
2013-04-12 05:20:00,74.3,72.4,29.92,SSE,156,8.8,9.1,94,0.00,,,0.00,WUHU216PEETBRO,2013-04-12 09:20:00,
2013-04-12 05:25:00,74.4,72.5,29.92,SSE,163,6.5,9.6,94,0.00,,,0.00,WUHU216PEETBRO,2013-04-12 09:25:00,
2013-04-12 05:30:00,74.5,72.6,29.92,South,173,5.5,9.6,94,0.00,,,0.00,WUHU216PEETBRO,2013-04-12 09:30:00,
2013-04-12 05:35:00,74.4,72.5,29.91,SSE,165,5.5,9.5,94,0.00,,,0.00,WUHU216PEETBRO,2013-04-12 09:35:00,
2013-04-12 05:40:00,74.4,72.5,29.91,SSE,166,5.0,9.5,94,0.00,,,0.00,WUHU216PEETBRO,2013-04-12 09:40:00,
2013-04-12 05:45:00,74.5,72.7,29.91,ESE,118,5.1,11.1,94,0.00,,,0.00,WUHU216PEETBRO,2013-04-12 09:45:00,
2013-04-12 05:50:00,74.4,72.6,29.91,SSE,159,6.3,11.1,94,0.00,,,0.00,WUHU216PEETBRO,2013-04-12 09:50:00,
2013-04-12 05:55:00,74.5,72.7,29.91,SSE,149,4.6,10.3,94,0.00,,,0.00,WUHU216PEETBRO,2013-04-12 09:55:00,
2013-04-12 06:00:00,74.5,72.7,29.91,SSE,159,0.0,8.6,94,0.00,,,0.00,WUHU216PEETBRO,2013-04-12 10:00:00,
2013-04-12 06:05:00,74.5,72.7,29.91,ESE,122,0.0,9.3,94,0.00,,,0.00,WUHU216PEETBRO,2013-04-12 10:05:00,
2013-04-12 06:10:00,74.5,72.7,29.91,SSE,162,7.6,11.6,94,0.00,,,0.00,WUHU216PEETBRO,2013-04-12 10:10:00,
2013-04-12 06:15:00,74.4,72.6,29.91,SE,129,6.5,11.6,94,0.00,,,0.00,WUHU216PEETBRO,2013-04-12 10:15:00,
2013-04-12 06:20:00,74.5,72.7,29.91,SE,132,4.8,10.3,94,0.00,,,0.00,WUHU216PEETBRO,2013-04-12 10:20:00,
2013-04-12 06:25:00,74.4,72.6,29.91,ESE,108,2.7,10.3,94,0.00,,,0.00,WUHU216PEETBRO,2013-04-12 10:25:00,
2013-04-12 06:30:00,74.4,72.6,29.91,SE,124,0.0,11.0,94,0.00,,,0.00,WUHU216PEETBRO,2013-04-12 10:30:00,
2013-04-12 06:35:00,74.3,72.6,29.90,SE,125,0.0,11.0,94,0.00,,,0.00,WUHU216PEETBRO,2013-04-12 10:35:00,
2013-04-12 06:40:00,74.4,72.7,29.90,SSE,160,9.6,10.7,94,0.00,,,0.00,WUHU216PEETBRO,2013-04-12 10:40:00,
2013-04-12 06:45:00,74.3,72.6,29.90,South,172,7.3,10.7,94,0.00,,,0.00,WUHU216PEETBRO,2013-04-12 10:45:00,
2013-04-12 06:50:00,74.3,72.6,29.90,South,187,5.9,9.3,95,0.00,,,0.00,WUHU216PEETBRO,2013-04-12 10:50:00,
2013-04-12 06:55:00,74.4,72.7,29.90,SSE,149,6.6,10.4,95,0.00,,,0.00,WUHU216PEETBRO,2013-04-12 10:55:00,
2013-04-12 07:00:00,74.4,72.7,29.89,South,172,5.5,10.4,95,0.00,,,0.00,WUHU216PEETBRO,2013-04-12 11:00:00,
2013-04-12 07:05:00,74.3,72.6,29.89,SSE,151,7.6,14.0,95,0.00,,,0.00,WUHU216PEETBRO,2013-04-12 11:05:00,
2013-04-12 07:10:00,74.2,72.5,29.89,SE,142,7.8,14.0,95,0.00,,,0.00,WUHU216PEETBRO,2013-04-12 11:10:00,
2013-04-12 07:15:00,74.4,72.7,29.89,SSE,167,9.5,11.2,95,0.00,,,0.00,WUHU216PEETBRO,2013-04-12 11:15:00,
2013-04-12 07:20:00,74.4,72.7,29.90,SSE,152,5.2,10.9,95,0.00,,,0.00,WUHU216PEETBRO,2013-04-12 11:20:00,
2013-04-12 07:25:00,74.5,72.8,29.89,SSE,152,10.7,10.7,95,0.00,,,0.00,WUHU216PEETBRO,2013-04-12 11:25:00,
2013-04-12 07:30:00,74.5,72.8,29.90,South,170,8.8,13.4,95,0.00,,,0.00,WUHU216PEETBRO,2013-04-12 11:30:00,
2013-04-12 07:35:00,74.6,72.9,29.90,ESE,121,5.0,13.4,95,0.00,,,0.00,WUHU216PEETBRO,2013-04-12 11:35:00,
2013-04-12 07:40:00,74.7,72.9,29.90,SSE,156,9.8,15.5,94,0.00,,,0.00,WUHU216PEETBRO,2013-04-12 11:40:00,
2013-04-12 07:45:00,74.9,73.0,29.90,SSE,167,8.9,15.8,94,0.00,,,0.00,WUHU216PEETBRO,2013-04-12 11:45:00,
2013-04-12 07:50:00,75.0,73.1,29.90,SE,128,7.4,15.8,94,0.00,,,0.00,WUHU216PEETBRO,2013-04-12 11:50:00,
2013-04-12 07:55:00,75.0,73.0,29.91,SSE,162,13.5,17.2,94,0.00,,,0.00,WUHU216PEETBRO,2013-04-12 11:55:00,
2013-04-12 08:00:00,75.2,73.1,29.90,SSE,149,11.7,18.1,93,0.00,,,0.00,WUHU216PEETBRO,2013-04-12 12:00:00,
2013-04-12 08:05:00,75.2,73.0,29.88,South,175,13.5,22.1,93,0.00,,,0.00,WUHU216PEETBRO,2013-04-12 12:05:00,
2013-04-12 08:10:00,75.3,73.0,29.90,SSW,203,5.6,22.1,93,0.00,,,0.00,WUHU216PEETBRO,2013-04-12 12:10:00,
2013-04-12 08:15:00,75.4,73.1,29.89,SE,136,5.3,19.1,93,0.00,,,0.00,WUHU216PEETBRO,2013-04-12 12:15:00,
2013-04-12 08:20:00,75.4,72.9,29.90,SE,128,6.7,17.1,92,0.00,,,0.00,WUHU216PEETBRO,2013-04-12 12:20:00,
2013-04-12 08:25:00,75.7,73.1,29.90,SW,215,5.6,17.1,92,0.00,,,0.00,WUHU216PEETBRO,2013-04-12 12:25:00,
2013-04-12 08:30:00,75.7,73.0,29.90,South,182,7.7,12.7,91,0.00,,,0.00,WUHU216PEETBRO,2013-04-12 12:30:00,
2013-04-12 08:35:00,75.8,73.0,29.90,SSE,148,8.3,14.0,91,0.00,,,0.00,WUHU216PEETBRO,2013-04-12 12:35:00,
2013-04-12 08:40:00,76.0,73.2,29.90,SSE,165,6.3,14.0,91,0.00,,,0.00,WUHU216PEETBRO,2013-04-12 12:40:00,
2013-04-12 08:45:00,76.1,73.2,29.90,SE,127,3.5,14.7,91,0.00,,,0.00,WUHU216PEETBRO,2013-04-12 12:45:00,
2013-04-12 08:50:00,76.1,73.1,29.90,SE,146,10.4,13.9,91,0.00,,,0.00,WUHU216PEETBRO,2013-04-12 12:50:00,
2013-04-12 08:56:00,76.3,73.2,29.89,SSE,167,3.4,13.9,90,0.00,,,0.00,WUHU216PEETBRO,2013-04-12 12:56:00,
2013-04-12 09:01:00,76.5,73.4,29.89,SE,146,11.4,12.8,90,0.00,,,0.00,WUHU216PEETBRO,2013-04-12 13:01:00,
2013-04-12 09:06:00,76.7,73.4,29.89,SE,138,5.8,13.5,90,0.00,,,0.00,WUHU216PEETBRO,2013-04-12 13:06:00,
2013-04-12 09:10:00,76.9,73.5,29.89,SSE,166,6.1,15.6,89,0.00,,,0.00,WUHU216PEETBRO,2013-04-12 13:10:00,
2013-04-12 09:15:00,77.1,73.5,29.88,SE,145,9.1,15.6,89,0.00,,,0.00,WUHU216PEETBRO,2013-04-12 13:15:00,
2013-04-12 09:21:00,77.2,73.5,29.88,South,169,13.3,16.4,88,0.00,,,0.00,WUHU216PEETBRO,2013-04-12 13:21:00,
2013-04-12 09:26:00,77.3,73.4,29.88,SSE,163,11.8,16.4,88,0.00,,,0.00,WUHU216PEETBRO,2013-04-12 13:26:00,
2013-04-12 09:31:00,77.4,73.4,29.88,SSE,166,6.8,17.3,88,0.00,,,0.00,WUHU216PEETBRO,2013-04-12 13:31:00,
2013-04-12 09:36:00,77.5,73.5,29.89,SE,136,6.2,17.3,87,0.00,,,0.00,WUHU216PEETBRO,2013-04-12 13:36:00,
2013-04-12 09:41:00,77.8,73.7,29.90,South,172,9.1,14.4,87,0.00,,,0.00,WUHU216PEETBRO,2013-04-12 13:41:00,
2013-04-12 09:45:00,77.7,73.4,29.90,South,176,11.6,16.3,87,0.00,,,0.00,WUHU216PEETBRO,2013-04-12 13:45:00,
2013-04-12 09:50:00,77.8,73.5,29.90,SE,127,9.5,16.3,87,0.00,,,0.00,WUHU216PEETBRO,2013-04-12 13:50:00,
2013-04-12 09:55:00,78.0,73.7,29.90,SW,228,0.0,13.2,87,0.00,,,0.00,WUHU216PEETBRO,2013-04-12 13:55:00,
2013-04-12 10:01:00,78.0,73.6,29.91,SSE,152,7.0,19.3,86,0.00,,,0.00,WUHU216PEETBRO,2013-04-12 14:01:00,
2013-04-12 10:06:00,78.2,73.8,29.91,South,191,6.6,19.3,86,0.00,,,0.00,WUHU216PEETBRO,2013-04-12 14:06:00,
2013-04-12 10:12:00,78.0,73.5,29.91,SE,136,12.9,16.6,86,0.00,,,0.00,WUHU216PEETBRO,2013-04-12 14:12:00,
2013-04-12 10:17:00,78.1,73.6,29.91,South,176,15.0,18.6,86,0.00,,,0.00,WUHU216PEETBRO,2013-04-12 14:17:00,
2013-04-12 10:22:00,78.2,73.6,29.91,South,170,14.4,18.6,86,0.00,,,0.00,WUHU216PEETBRO,2013-04-12 14:22:00,
2013-04-12 10:27:00,78.2,73.5,29.91,South,172,8.6,14.8,86,0.00,,,0.00,WUHU216PEETBRO,2013-04-12 14:27:00,
2013-04-12 10:32:00,78.3,73.5,29.91,South,170,8.4,16.2,85,0.00,,,0.00,WUHU216PEETBRO,2013-04-12 14:32:00,
2013-04-12 10:37:00,78.2,73.5,29.91,SSW,210,6.2,16.2,85,0.00,,,0.00,WUHU216PEETBRO,2013-04-12 14:37:00,
2013-04-12 10:42:00,78.4,73.7,29.92,SSW,203,5.4,14.0,85,0.00,,,0.00,WUHU216PEETBRO,2013-04-12 14:42:00,
2013-04-12 10:47:00,78.7,73.9,29.93,SW,218,5.5,14.0,85,0.00,,,0.00,WUHU216PEETBRO,2013-04-12 14:47:00,
2013-04-12 10:52:00,78.8,73.8,29.93,SSE,165,5.8,11.9,84,0.00,,,0.00,WUHU216PEETBRO,2013-04-12 14:52:00,
2013-04-12 10:57:00,79.0,73.5,29.92,SE,141,7.8,13.3,83,0.00,,,0.00,WUHU216PEETBRO,2013-04-12 14:57:00,
2013-04-12 11:02:00,79.1,73.4,29.91,East,94,5.0,13.9,83,0.00,,,0.00,WUHU216PEETBRO,2013-04-12 15:02:00,
2013-04-12 11:07:00,79.5,73.0,29.91,ESE,107,9.8,14.8,80,0.00,,,0.00,WUHU216PEETBRO,2013-04-12 15:07:00,
2013-04-12 11:12:00,79.8,73.0,29.91,SSW,196,5.8,15.0,80,0.00,,,0.00,WUHU216PEETBRO,2013-04-12 15:12:00,
2013-04-12 11:17:00,80.2,73.0,29.91,SSE,160,8.3,15.0,79,0.00,,,0.00,WUHU216PEETBRO,2013-04-12 15:17:00,
2013-04-12 11:22:00,80.4,72.6,29.91,SE,127,5.6,12.7,77,0.00,,,0.00,WUHU216PEETBRO,2013-04-12 15:22:00,
2013-04-12 11:27:00,80.7,72.4,29.91,South,177,5.9,19.8,76,0.00,,,0.00,WUHU216PEETBRO,2013-04-12 15:27:00,
2013-04-12 11:32:00,80.5,72.1,29.91,SSE,165,9.4,19.8,75,0.00,,,0.00,WUHU216PEETBRO,2013-04-12 15:32:00,
2013-04-12 11:37:00,80.4,71.9,29.91,South,189,10.9,19.3,75,0.00,,,0.00,WUHU216PEETBRO,2013-04-12 15:37:00,
2013-04-12 11:42:00,80.3,71.8,29.91,SSE,152,11.8,19.4,75,0.00,,,0.00,WUHU216PEETBRO,2013-04-12 15:42:00,
2013-04-12 11:47:00,80.5,72.1,29.91,SSW,197,5.7,19.4,75,0.00,,,0.00,WUHU216PEETBRO,2013-04-12 15:47:00,
2013-04-12 11:52:00,80.5,72.1,29.91,South,176,7.2,15.5,75,0.00,,,0.00,WUHU216PEETBRO,2013-04-12 15:52:00,
2013-04-12 11:57:00,80.6,72.2,29.91,SSE,153,14.1,16.6,75,0.00,,,0.00,WUHU216PEETBRO,2013-04-12 15:57:00,
2013-04-12 12:02:00,81.0,72.1,29.91,South,169,7.5,16.6,74,0.00,,,0.00,WUHU216PEETBRO,2013-04-12 16:02:00,
2013-04-12 12:07:00,81.3,71.8,29.90,South,190,8.6,15.6,72,0.00,,,0.00,WUHU216PEETBRO,2013-04-12 16:07:00,
2013-04-12 12:12:00,81.5,71.3,29.90,South,180,11.6,17.6,71,0.00,,,0.00,WUHU216PEETBRO,2013-04-12 16:12:00,
2013-04-12 12:17:00,81.9,70.5,29.90,SSW,193,12.0,17.6,68,0.00,,,0.00,WUHU216PEETBRO,2013-04-12 16:17:00,
2013-04-12 12:22:00,81.9,70.2,29.89,SSE,156,9.4,17.6,67,0.00,,,0.00,WUHU216PEETBRO,2013-04-12 16:22:00,
2013-04-12 12:27:00,82.2,70.4,29.89,South,177,11.2,17.6,67,0.00,,,0.00,WUHU216PEETBRO,2013-04-12 16:27:00,
2013-04-12 12:32:00,82.2,70.2,29.89,SE,135,8.6,20.0,67,0.00,,,0.00,WUHU216PEETBRO,2013-04-12 16:32:00,
2013-04-12 12:37:00,82.3,70.3,29.90,SSW,196,8.0,20.0,67,0.00,,,0.00,WUHU216PEETBRO,2013-04-12 16:37:00,
2013-04-12 12:42:00,82.4,70.2,29.89,South,186,9.8,16.3,66,0.00,,,0.00,WUHU216PEETBRO,2013-04-12 16:42:00,
2013-04-12 12:47:00,82.5,69.9,29.88,South,180,12.8,19.0,65,0.00,,,0.00,WUHU216PEETBRO,2013-04-12 16:47:00,
2013-04-12 12:52:00,82.5,70.1,29.88,SSW,199,11.2,19.0,66,0.00,,,0.00,WUHU216PEETBRO,2013-04-12 16:52:00,
2013-04-12 12:57:00,82.5,70.4,29.88,SE,146,8.0,21.7,66,0.00,,,0.00,WUHU216PEETBRO,2013-04-12 16:57:00,
2013-04-12 13:02:00,82.7,70.4,29.88,SE,132,15.9,21.7,66,0.00,,,0.00,WUHU216PEETBRO,2013-04-12 17:02:00,
2013-04-12 13:07:00,82.7,70.1,29.87,SSE,152,11.2,18.4,65,0.00,,,0.00,WUHU216PEETBRO,2013-04-12 17:07:00,
2013-04-12 13:12:00,83.0,70.0,29.87,SE,141,12.6,18.4,64,0.00,,,0.00,WUHU216PEETBRO,2013-04-12 17:12:00,
2013-04-12 13:17:00,83.0,69.2,29.87,SSW,206,5.2,21.9,63,0.00,,,0.00,WUHU216PEETBRO,2013-04-12 17:17:00,
2013-04-12 13:22:00,83.3,68.9,29.87,SE,128,10.0,21.9,61,0.00,,,0.00,WUHU216PEETBRO,2013-04-12 17:22:00,
2013-04-12 13:27:00,83.5,69.1,29.88,SE,132,12.2,17.9,61,0.00,,,0.00,WUHU216PEETBRO,2013-04-12 17:27:00,
2013-04-12 13:32:00,83.6,69.6,29.89,SSW,201,3.0,15.5,62,0.00,,,0.00,WUHU216PEETBRO,2013-04-12 17:32:00,
2013-04-12 13:37:00,83.9,69.3,29.89,South,173,4.8,15.0,61,0.00,,,0.00,WUHU216PEETBRO,2013-04-12 17:37:00,
2013-04-12 13:43:00,83.9,69.3,29.89,SE,127,10.3,15.0,61,0.00,,,0.00,WUHU216PEETBRO,2013-04-12 17:43:00,
2013-04-12 13:48:00,83.7,69.4,29.89,South,183,7.8,14.2,62,0.00,,,0.00,WUHU216PEETBRO,2013-04-12 17:48:00,
2013-04-12 13:53:00,83.7,68.8,29.89,South,179,6.9,17.9,61,0.00,,,0.00,WUHU216PEETBRO,2013-04-12 17:53:00,
2013-04-12 13:58:00,83.7,69.4,29.89,South,172,5.6,17.9,62,0.00,,,0.00,WUHU216PEETBRO,2013-04-12 17:58:00,
2013-04-12 14:04:00,83.6,69.0,29.88,SSE,159,9.8,16.0,61,0.00,,,0.00,WUHU216PEETBRO,2013-04-12 18:04:00,
2013-04-12 14:10:00,83.4,69.0,29.88,South,180,11.1,16.0,61,0.00,,,0.00,WUHU216PEETBRO,2013-04-12 18:10:00,
2013-04-12 14:15:00,83.5,69.3,29.88,SSE,160,10.1,16.9,62,0.00,,,0.00,WUHU216PEETBRO,2013-04-12 18:15:00,
2013-04-12 14:20:00,83.3,69.1,29.87,SE,132,15.5,16.9,62,0.00,,,0.00,WUHU216PEETBRO,2013-04-12 18:20:00,
2013-04-12 14:25:00,83.2,69.0,29.87,SSE,166,8.1,18.6,62,0.00,,,0.00,WUHU216PEETBRO,2013-04-12 18:25:00,
2013-04-12 14:33:00,83.6,69.0,29.86,SSE,148,12.9,15.7,61,0.00,,,0.00,WUHU216PEETBRO,2013-04-12 18:33:00,
2013-04-12 14:38:00,83.6,68.7,29.86,SE,143,12.4,18.2,61,0.00,,,0.00,WUHU216PEETBRO,2013-04-12 18:38:00,
2013-04-12 14:45:00,83.7,68.8,29.86,SSW,193,12.3,17.0,61,0.00,,,0.00,WUHU216PEETBRO,2013-04-12 18:45:00,
2013-04-12 14:51:00,83.8,68.5,29.86,SSE,158,9.3,15.9,60,0.00,,,0.00,WUHU216PEETBRO,2013-04-12 18:51:00,
2013-04-12 14:57:00,83.6,68.0,29.87,South,177,8.0,19.3,59,0.00,,,0.00,WUHU216PEETBRO,2013-04-12 18:57:00,
2013-04-12 15:09:00,83.6,67.9,29.86,SE,128,7.3,19.1,59,0.00,,,0.00,WUHU216PEETBRO,2013-04-12 19:09:00,
2013-04-12 15:14:00,83.6,68.2,29.86,SSE,163,16.3,18.8,59,0.00,,,0.00,WUHU216PEETBRO,2013-04-12 19:14:00,
2013-04-12 15:26:00,83.7,68.7,29.87,South,189,5.8,15.5,60,0.00,,,0.00,WUHU216PEETBRO,2013-04-12 19:26:00,
2013-04-12 15:31:00,83.9,69.1,29.87,SW,227,5.5,11.2,61,0.00,,,0.00,WUHU216PEETBRO,2013-04-12 19:31:00,
2013-04-12 15:36:00,84.1,69.2,29.87,SW,235,8.3,11.2,60,0.00,,,0.00,WUHU216PEETBRO,2013-04-12 19:36:00,
2013-04-12 15:41:00,84.2,69.3,29.87,SE,146,0.0,11.6,60,0.00,,,0.00,WUHU216PEETBRO,2013-04-12 19:41:00,
2013-04-12 15:46:00,84.2,69.4,29.86,South,187,11.6,11.6,61,0.00,,,0.00,WUHU216PEETBRO,2013-04-12 19:46:00,
2013-04-12 15:52:00,84.0,69.3,29.86,South,183,5.2,12.8,61,0.00,,,0.00,WUHU216PEETBRO,2013-04-12 19:52:00,
2013-04-12 15:57:00,84.0,69.5,29.86,SSW,201,4.7,12.8,61,0.00,,,0.00,WUHU216PEETBRO,2013-04-12 19:57:00,
2013-04-12 16:02:00,84.2,69.5,29.86,South,176,6.3,12.9,61,0.00,,,0.00,WUHU216PEETBRO,2013-04-12 20:02:00,
2013-04-12 16:07:00,84.4,69.3,29.85,SSW,197,6.4,12.9,60,0.00,,,0.00,WUHU216PEETBRO,2013-04-12 20:07:00,
2013-04-12 16:12:00,84.7,68.8,29.85,SSE,155,6.2,14.0,59,0.00,,,0.00,WUHU216PEETBRO,2013-04-12 20:12:00,
2013-04-12 16:17:00,84.9,68.7,29.85,SW,224,5.0,14.0,58,0.00,,,0.00,WUHU216PEETBRO,2013-04-12 20:17:00,
2013-04-12 16:22:00,85.1,67.8,29.85,South,179,6.8,13.0,56,0.00,,,0.00,WUHU216PEETBRO,2013-04-12 20:22:00,
2013-04-12 16:27:00,85.2,67.4,29.85,SW,223,10.0,17.4,55,0.00,,,0.00,WUHU216PEETBRO,2013-04-12 20:27:00,
2013-04-12 16:32:00,85.4,67.0,29.85,SSW,200,10.2,17.4,54,0.00,,,0.00,WUHU216PEETBRO,2013-04-12 20:32:00,
2013-04-12 16:37:00,85.6,66.8,29.85,WNW,285,9.6,15.0,53,0.00,,,0.00,WUHU216PEETBRO,2013-04-12 20:37:00,
2013-04-12 16:42:00,85.5,65.7,29.85,South,176,5.8,14.9,51,0.00,,,0.00,WUHU216PEETBRO,2013-04-12 20:42:00,
2013-04-12 16:47:00,85.5,66.0,29.85,SSW,204,11.2,14.9,52,0.00,,,0.00,WUHU216PEETBRO,2013-04-12 20:47:00,
2013-04-12 16:52:00,85.4,66.2,29.86,South,169,8.0,17.6,52,0.00,,,0.00,WUHU216PEETBRO,2013-04-12 20:52:00,
2013-04-12 16:57:00,85.3,66.6,29.86,West,259,10.5,17.6,53,0.00,,,0.00,WUHU216PEETBRO,2013-04-12 20:57:00,
2013-04-12 17:02:00,85.3,66.6,29.86,West,272,10.7,14.4,53,0.00,,,0.00,WUHU216PEETBRO,2013-04-12 21:02:00,
2013-04-12 17:07:00,85.2,66.7,29.86,SW,232,5.1,14.4,54,0.00,,,0.00,WUHU216PEETBRO,2013-04-12 21:07:00,
2013-04-12 17:12:00,84.9,65.9,29.87,South,177,11.4,15.2,53,0.00,,,0.00,WUHU216PEETBRO,2013-04-12 21:12:00,
2013-04-12 17:17:00,84.5,66.1,29.86,SSW,207,10.1,17.6,54,0.00,,,0.00,WUHU216PEETBRO,2013-04-12 21:17:00,
2013-04-12 17:22:00,84.3,66.3,29.86,South,176,5.2,17.6,54,0.00,,,0.00,WUHU216PEETBRO,2013-04-12 21:22:00,
2013-04-12 17:27:00,84.3,66.4,29.86,SW,227,13.3,14.0,55,0.00,,,0.00,WUHU216PEETBRO,2013-04-12 21:27:00,
2013-04-12 17:32:00,84.2,66.7,29.86,SW,220,6.6,14.0,55,0.00,,,0.00,WUHU216PEETBRO,2013-04-12 21:32:00,
2013-04-12 17:37:00,84.1,66.9,29.86,SSE,167,7.0,11.7,56,0.00,,,0.00,WUHU216PEETBRO,2013-04-12 21:37:00,
2013-04-12 17:42:00,83.8,66.3,29.86,SSE,167,8.0,15.2,55,0.00,,,0.00,WUHU216PEETBRO,2013-04-12 21:42:00,
2013-04-12 17:48:00,83.8,66.6,29.86,South,172,6.7,15.3,56,0.00,,,0.00,WUHU216PEETBRO,2013-04-12 21:48:00,
2013-04-12 17:52:00,83.8,66.9,29.86,SW,218,6.1,15.3,57,0.00,,,0.00,WUHU216PEETBRO,2013-04-12 21:52:00,
2013-04-12 17:57:00,83.8,67.1,29.87,SW,218,11.8,13.0,57,0.00,,,0.00,WUHU216PEETBRO,2013-04-12 21:57:00,
2013-04-12 18:02:00,83.6,66.9,29.87,South,177,3.2,15.2,57,0.00,,,0.00,WUHU216PEETBRO,2013-04-12 22:02:00,
2013-04-12 18:07:00,83.7,67.2,29.87,SW,225,3.5,15.2,57,0.00,,,0.00,WUHU216PEETBRO,2013-04-12 22:07:00,
2013-04-12 18:12:00,83.7,67.4,29.87,South,172,0.0,10.1,58,0.00,,,0.00,WUHU216PEETBRO,2013-04-12 22:12:00,
2013-04-12 18:17:00,83.6,67.1,29.88,SW,225,7.2,10.7,57,0.00,,,0.00,WUHU216PEETBRO,2013-04-12 22:17:00,
2013-04-12 18:22:00,83.7,67.1,29.88,South,184,8.4,11.5,57,0.00,,,0.00,WUHU216PEETBRO,2013-04-12 22:22:00,
2013-04-12 18:27:00,83.5,66.8,29.88,SSW,206,10.0,11.7,57,0.00,,,0.00,WUHU216PEETBRO,2013-04-12 22:27:00,
2013-04-12 18:32:00,83.5,66.6,29.88,SSE,159,7.1,12.5,57,0.00,,,0.00,WUHU216PEETBRO,2013-04-12 22:32:00,
2013-04-12 18:38:00,83.5,66.4,29.87,SE,135,0.0,12.5,56,0.00,,,0.00,WUHU216PEETBRO,2013-04-12 22:38:00,
2013-04-12 18:43:00,83.5,66.3,29.87,SSE,159,7.8,9.9,56,0.00,,,0.00,WUHU216PEETBRO,2013-04-12 22:43:00,
2013-04-12 18:48:00,83.4,66.3,29.88,WSW,244,5.3,9.6,56,0.00,,,0.00,WUHU216PEETBRO,2013-04-12 22:48:00,
2013-04-12 18:53:00,83.3,66.7,29.88,SW,231,5.7,9.6,57,0.00,,,0.00,WUHU216PEETBRO,2013-04-12 22:53:00,
2013-04-12 18:58:00,83.2,66.9,29.88,WSW,248,5.7,13.8,58,0.00,,,0.00,WUHU216PEETBRO,2013-04-12 22:58:00,
2013-04-12 19:03:00,82.8,65.5,29.88,SSW,210,8.0,13.8,56,0.00,,,0.00,WUHU216PEETBRO,2013-04-12 23:03:00,
2013-04-12 19:08:00,82.8,65.3,29.88,SSW,201,6.7,13.7,55,0.00,,,0.00,WUHU216PEETBRO,2013-04-12 23:08:00,
2013-04-12 19:13:00,82.6,65.2,29.88,South,175,9.8,13.7,55,0.00,,,0.00,WUHU216PEETBRO,2013-04-12 23:13:00,
2013-04-12 19:18:00,82.5,65.3,29.88,South,190,3.4,12.9,56,0.00,,,0.00,WUHU216PEETBRO,2013-04-12 23:18:00,
2013-04-12 19:23:00,82.5,65.5,29.88,SSE,152,0.0,9.7,56,0.00,,,0.00,WUHU216PEETBRO,2013-04-12 23:23:00,
2013-04-12 19:28:00,82.4,65.7,29.88,SSW,204,0.0,9.7,57,0.00,,,0.00,WUHU216PEETBRO,2013-04-12 23:28:00,
2013-04-12 19:33:00,82.2,65.8,29.88,SSE,167,4.4,9.4,57,0.00,,,0.00,WUHU216PEETBRO,2013-04-12 23:33:00,
2013-04-12 19:38:00,82.1,65.9,29.88,South,184,5.9,9.4,58,0.00,,,0.00,WUHU216PEETBRO,2013-04-12 23:38:00,
2013-04-12 19:43:00,81.9,66.0,29.89,South,169,7.6,11.8,58,0.00,,,0.00,WUHU216PEETBRO,2013-04-12 23:43:00,
2013-04-12 19:48:00,81.9,66.3,29.89,SW,223,2.4,11.8,59,0.00,,,0.00,WUHU216PEETBRO,2013-04-12 23:48:00,
2013-04-12 19:53:00,81.8,66.5,29.88,SSE,152,0.0,7.7,59,0.00,,,0.00,WUHU216PEETBRO,2013-04-12 23:53:00,
2013-04-12 19:58:00,81.5,66.4,29.88,SSE,148,0.0,7.3,60,0.00,,,0.00,WUHU216PEETBRO,2013-04-12 23:58:00,
2013-04-12 20:03:00,81.4,66.6,29.88,SSW,210,0.0,6.1,60,0.00,,,0.00,WUHU216PEETBRO,2013-04-13 00:03:00,
2013-04-12 20:08:00,81.5,66.8,29.88,South,189,0.0,6.0,61,0.00,,,0.00,WUHU216PEETBRO,2013-04-13 00:08:00,
2013-04-12 20:13:00,81.3,66.8,29.90,SSW,208,0.0,5.2,61,0.00,,,0.00,WUHU216PEETBRO,2013-04-13 00:13:00,
2013-04-12 20:18:00,81.2,66.9,29.91,SW,218,4.2,6.8,61,0.00,,,0.00,WUHU216PEETBRO,2013-04-13 00:18:00,
2013-04-12 20:23:00,80.9,66.9,29.90,SE,136,0.0,6.8,62,0.00,,,0.00,WUHU216PEETBRO,2013-04-13 00:23:00,
2013-04-12 20:28:00,80.8,67.0,29.91,SSW,210,3.4,6.7,63,0.00,,,0.00,WUHU216PEETBRO,2013-04-13 00:28:00,
2013-04-12 20:33:00,80.7,67.1,29.91,SE,136,2.9,6.2,63,0.00,,,0.00,WUHU216PEETBRO,2013-04-13 00:33:00,
2013-04-12 20:38:00,80.3,67.0,29.90,South,172,3.2,6.2,64,0.00,,,0.00,WUHU216PEETBRO,2013-04-13 00:38:00,
2013-04-12 20:43:00,80.5,67.4,29.91,SSW,197,0.0,6.9,64,0.00,,,0.00,WUHU216PEETBRO,2013-04-13 00:43:00,
2013-04-12 20:48:00,80.4,67.5,29.91,SSW,207,5.7,8.5,64,0.00,,,0.00,WUHU216PEETBRO,2013-04-13 00:48:00,
2013-04-12 20:53:00,80.4,67.7,29.92,SW,215,6.3,8.5,65,0.00,,,0.00,WUHU216PEETBRO,2013-04-13 00:53:00,
2013-04-12 20:58:00,80.3,67.8,29.92,South,187,0.0,7.0,65,0.00,,,0.00,WUHU216PEETBRO,2013-04-13 00:58:00,
2013-04-12 21:03:00,80.2,67.9,29.91,SSW,199,0.0,5.3,66,0.00,,,0.00,WUHU216PEETBRO,2013-04-13 01:03:00,
2013-04-12 21:08:00,80.1,68.0,29.91,SE,141,0.0,4.5,66,0.00,,,0.00,WUHU216PEETBRO,2013-04-13 01:08:00,
2013-04-12 21:13:00,80.1,68.3,29.91,SSE,165,4.6,4.7,67,0.00,,,0.00,WUHU216PEETBRO,2013-04-13 01:13:00,
2013-04-12 21:18:00,79.9,68.3,29.91,South,182,0.0,7.5,67,0.00,,,0.00,WUHU216PEETBRO,2013-04-13 01:18:00,
2013-04-12 21:23:00,79.9,68.5,29.90,SE,146,0.0,7.5,68,0.00,,,0.00,WUHU216PEETBRO,2013-04-13 01:23:00,
2013-04-12 21:28:00,79.8,68.4,29.90,SE,146,0.0,6.4,68,0.00,,,0.00,WUHU216PEETBRO,2013-04-13 01:28:00,
2013-04-12 21:33:00,79.9,68.7,29.91,SE,146,0.0,0.0,68,0.00,,,0.00,WUHU216PEETBRO,2013-04-13 01:33:00,
2013-04-12 21:38:00,79.8,68.9,29.91,West,268,4.6,5.2,69,0.00,,,0.00,WUHU216PEETBRO,2013-04-13 01:38:00,
2013-04-12 21:43:00,79.7,69.0,29.92,WSW,248,0.0,5.2,69,0.00,,,0.00,WUHU216PEETBRO,2013-04-13 01:43:00,
2013-04-12 21:48:00,79.5,69.2,29.92,SSW,208,0.0,5.3,70,0.00,,,0.00,WUHU216PEETBRO,2013-04-13 01:48:00,
2013-04-12 21:53:00,79.3,69.0,29.92,SSW,208,0.0,5.3,70,0.00,,,0.00,WUHU216PEETBRO,2013-04-13 01:53:00,
2013-04-12 21:58:00,79.2,69.0,29.92,SSW,208,0.0,0.0,71,0.00,,,0.00,WUHU216PEETBRO,2013-04-13 01:58:00,
2013-04-12 22:03:00,79.0,69.0,29.92,SSW,208,0.0,0.0,71,0.00,,,0.00,WUHU216PEETBRO,2013-04-13 02:03:00,
2013-04-12 22:08:00,79.0,69.2,29.92,SSW,208,0.0,0.0,71,0.00,,,0.00,WUHU216PEETBRO,2013-04-13 02:08:00,
2013-04-12 22:13:00,78.9,69.2,29.93,SSW,208,0.0,0.0,72,0.00,,,0.00,WUHU216PEETBRO,2013-04-13 02:13:00,
2013-04-12 22:18:00,78.8,69.3,29.93,SSW,208,0.0,0.0,72,0.00,,,0.00,WUHU216PEETBRO,2013-04-13 02:18:00,
2013-04-12 22:23:00,78.7,69.4,29.93,SSW,208,0.0,0.0,73,0.00,,,0.00,WUHU216PEETBRO,2013-04-13 02:23:00,
2013-04-12 22:28:00,78.5,69.3,29.93,SSW,208,0.0,0.0,73,0.00,,,0.00,WUHU216PEETBRO,2013-04-13 02:28:00,
2013-04-12 22:33:00,78.4,69.4,29.93,SSW,208,0.0,0.0,74,0.00,,,0.00,WUHU216PEETBRO,2013-04-13 02:33:00,
2013-04-12 22:38:00,78.3,69.4,29.93,SE,146,0.0,3.2,74,0.00,,,0.00,WUHU216PEETBRO,2013-04-13 02:38:00,
2013-04-12 22:43:00,78.2,69.5,29.93,SE,146,0.0,3.2,74,0.00,,,0.00,WUHU216PEETBRO,2013-04-13 02:43:00,
2013-04-12 22:48:00,78.3,69.7,29.93,SSE,166,0.0,4.9,75,0.00,,,0.00,WUHU216PEETBRO,2013-04-13 02:48:00,
2013-04-12 22:53:00,78.3,69.7,29.94,SSE,166,0.0,4.9,75,0.00,,,0.00,WUHU216PEETBRO,2013-04-13 02:53:00,
2013-04-12 22:58:00,78.2,69.7,29.94,SSE,166,0.0,0.0,75,0.00,,,0.00,WUHU216PEETBRO,2013-04-13 02:58:00,
2013-04-12 23:03:00,78.1,69.7,29.94,SSE,166,0.0,0.0,75,0.00,,,0.00,WUHU216PEETBRO,2013-04-13 03:03:00,
2013-04-12 23:08:00,78.0,69.8,29.94,SSE,166,0.0,0.0,75,0.00,,,0.00,WUHU216PEETBRO,2013-04-13 03:08:00,
2013-04-12 23:13:00,78.0,70.0,29.93,SSE,166,0.0,0.0,76,0.00,,,0.00,WUHU216PEETBRO,2013-04-13 03:13:00,
2013-04-12 23:18:00,77.9,70.2,29.94,SE,142,4.8,7.1,77,0.00,,,0.00,WUHU216PEETBRO,2013-04-13 03:18:00,
2013-04-12 23:23:00,77.8,70.2,29.93,SE,138,4.3,7.1,77,0.00,,,0.00,WUHU216PEETBRO,2013-04-13 03:23:00,
2013-04-12 23:28:00,77.8,70.2,29.93,East,100,0.0,5.7,77,0.00,,,0.00,WUHU216PEETBRO,2013-04-13 03:28:00,
2013-04-12 23:33:00,77.7,70.2,29.93,East,100,0.0,0.0,77,0.00,,,0.00,WUHU216PEETBRO,2013-04-13 03:33:00,
2013-04-12 23:38:00,77.7,70.2,29.94,East,100,0.0,0.0,78,0.00,,,0.00,WUHU216PEETBRO,2013-04-13 03:38:00,
2013-04-12 23:43:00,77.4,70.1,29.94,East,100,0.0,0.0,78,0.00,,,0.00,WUHU216PEETBRO,2013-04-13 03:43:00,
2013-04-12 23:48:00,77.3,70.0,29.93,East,100,0.0,0.0,78,0.00,,,0.00,WUHU216PEETBRO,2013-04-13 03:48:00,
2013-04-12 23:53:00,77.3,70.2,29.93,East,100,0.0,0.0,78,0.00,,,0.00,WUHU216PEETBRO,2013-04-13 03:53:00,
2013-04-12 23:58:00,77.1,70.1,29.93,East,100,0.0,0.0,79,0.00,,,0.00,WUHU216PEETBRO,2013-04-13 03:58:00,